Time;durP1;ratioP1;P1;durP2;ratioP2;P2;SDS_P1;SDS_P2;PMS_P1;PMS_P2;Temp;Humidity;BMP_temperature;BMP_pressure;BME280_temperature;BME280_humidity;BME280_pressure;Samples;Min_cycle;Max_cycle;Signal;HPM_P1;HPM_P2
2021/01/17 00:02:07;;;;;;;35.65;14.23;;;;;;;-10.45;71.48;100135.06;1802631;79;25947;-59
2021/01/17 00:04:33;;;;;;;40.45;13.95;;;;;;;-10.46;71.58;100143.91;1802704;79;26264;-53
2021/01/17 00:07:02;;;;;;;31.17;14.05;;;;;;;-10.46;71.50;100150.45;1802471;79;25781;-54
2021/01/17 00:09:28;;;;;;;29.07;12.47;;;;;;;-10.49;71.58;100154.72;1802338;79;25793;-51
2021/01/17 00:11:58;;;;;;;33.23;13.28;;;;;;;-10.50;71.61;100165.67;1802404;79;25677;-56
2021/01/17 00:14:25;;;;;;;30.45;13.75;;;;;;;-10.54;71.36;100170.92;1802172;79;25778;-54
2021/01/17 00:16:52;;;;;;;36.68;13.93;;;;;;;-10.57;71.35;100173.40;1802447;79;25895;-58
2021/01/17 00:19:18;;;;;;;30.82;13.35;;;;;;;-10.59;71.34;100171.94;1802627;79;26446;-57
2021/01/17 00:21:45;;;;;;;36.25;12.40;;;;;;;-10.60;71.48;100180.28;1756679;79;26347;-56
2021/01/17 00:24:12;;;;;;;35.75;13.08;;;;;;;-10.59;71.46;100182.39;1755250;81;26398;-59
2021/01/17 00:26:39;;;;;;;28.45;11.93;;;;;;;-10.60;71.46;100189.93;1755274;81;25738;-56
2021/01/17 00:29:06;;;;;;;31.37;12.80;;;;;;;-10.64;71.47;100189.94;1756002;81;25754;-59
2021/01/17 00:31:35;;;;;;;34.88;13.68;;;;;;;-10.57;71.49;100202.63;1756250;81;26165;-46
2021/01/17 00:34:03;;;;;;;32.55;11.78;;;;;;;-10.63;71.55;100195.00;1751388;80;26121;-53
2021/01/17 00:36:39;;;;;;;30.17;13.13;;;;;;;-10.59;71.74;100198.08;1741590;82;25915;-58
2021/01/17 00:39:07;;;;;;;34.48;14.00;;;;;;;-10.60;71.62;100199.88;1740872;81;25712;-57
2021/01/17 00:41:35;;;;;;;31.73;12.23;;;;;;;-10.59;71.67;100206.75;1741378;82;26236;-46
2021/01/17 00:44:04;;;;;;;32.05;12.50;;;;;;;-10.57;71.54;100211.78;1741442;81;25714;-55
2021/01/17 00:46:41;;;;;;;34.25;12.63;;;;;;;-10.60;71.55;100213.45;1741548;81;25736;-50
2021/01/17 00:49:09;;;;;;;32.50;12.73;;;;;;;-10.62;71.49;100214.94;1741466;82;25757;-41
2021/01/17 00:51:46;;;;;;;28.38;12.70;;;;;;;-10.65;71.47;100215.28;1741438;82;25647;-42
2021/01/17 00:54:14;;;;;;;38.00;13.18;;;;;;;-10.66;71.55;100213.64;1741358;82;25622;-49
2021/01/17 00:56:41;;;;;;;29.12;11.57;;;;;;;-10.70;71.49;100221.52;1741515;81;26670;-43
2021/01/17 00:59:10;;;;;;;31.25;11.48;;;;;;;-10.69;71.52;100223.63;1741439;81;25706;-54
2021/01/17 01:01:43;;;;;;;22.62;10.75;;;;;;;-10.69;71.74;100224.46;1741528;82;25681;-52
2021/01/17 01:04:17;;;;;;;28.07;10.35;;;;;;;-10.72;71.52;100218.27;1741414;82;26341;-50
2021/01/17 01:06:44;;;;;;;26.77;10.63;;;;;;;-10.74;71.51;100219.73;1741611;81;25703;-43
2021/01/17 01:09:15;;;;;;;26.05;10.25;;;;;;;-10.76;71.50;100221.72;1741400;81;25762;-56
2021/01/17 01:11:42;;;;;;;19.92;8.68;;;;;;;-10.77;71.44;100222.69;1741400;82;25611;-57
2021/01/17 01:14:10;;;;;;;20.08;9.00;;;;;;;-10.79;71.43;100215.52;1741330;81;26280;-49
2021/01/17 01:16:37;;;;;;;22.30;9.50;;;;;;;-10.86;71.15;100222.42;1741436;81;25644;-56
2021/01/17 01:19:04;;;;;;;25.10;9.88;;;;;;;-10.85;71.33;100214.08;1741486;81;25754;-47
2021/01/17 01:21:35;;;;;;;20.50;8.70;;;;;;;-10.90;71.18;100212.77;1741527;82;25724;-52
2021/01/17 01:24:02;;;;;;;22.75;9.08;;;;;;;-10.88;71.41;100222.25;1742423;81;25568;-58
2021/01/17 01:26:36;;;;;;;23.22;9.60;;;;;;;-10.88;71.53;100219.14;1741165;81;25549;-43
2021/01/17 01:29:04;;;;;;;22.50;9.40;;;;;;;-10.94;71.22;100227.17;1742125;82;25581;-49
2021/01/17 01:31:31;;;;;;;23.67;8.10;;;;;;;-10.96;71.32;100233.06;1742495;82;25670;-51
2021/01/17 01:33:59;;;;;;;20.75;8.10;;;;;;;-10.95;71.45;100240.41;1742564;81;25685;-50
2021/01/17 01:36:33;;;;;;;24.00;8.75;;;;;;;-10.96;71.33;100244.83;1742484;81;25632;-56
2021/01/17 01:39:00;;;;;;;21.42;8.70;;;;;;;-10.96;71.36;100242.22;1742429;81;25647;-41
2021/01/17 01:41:30;;;;;;;28.75;10.00;;;;;;;-10.98;71.40;100244.19;1742546;81;25680;-42
2021/01/17 01:43:57;;;;;;;23.77;9.40;;;;;;;-10.98;71.22;100244.19;1742361;81;25723;-57
2021/01/17 01:46:27;;;;;;;23.20;10.03;;;;;;;-11.02;71.15;100238.16;1742440;82;27152;-40
2021/01/17 01:48:54;;;;;;;24.07;8.73;;;;;;;-11.05;71.30;100241.09;1742423;82;25630;-43
2021/01/17 01:51:25;;;;;;;20.08;9.60;;;;;;;-11.05;71.27;100247.13;1742480;82;25549;-47
2021/01/17 01:53:54;;;;;;;20.82;8.48;;;;;;;-11.06;71.25;100259.89;1742440;81;25668;-42
2021/01/17 01:56:23;;;;;;;27.02;8.63;;;;;;;-11.08;71.31;100263.17;1742748;82;25637;-44
2021/01/17 01:58:52;;;;;;;25.43;10.15;;;;;;;-11.09;71.41;100270.16;1742624;82;26011;-57
2021/01/17 02:01:21;;;;;;;24.87;9.68;;;;;;;-11.09;71.46;100276.70;1742400;82;25582;-42
2021/01/17 02:03:49;;;;;;;23.42;8.73;;;;;;;-11.07;71.43;100281.76;1742498;81;25591;-57
2021/01/17 02:06:24;;;;;;;21.70;9.77;;;;;;;-11.07;71.23;100283.06;1742693;82;25786;-55
2021/01/17 02:09:18;;;;;;;23.35;9.35;;;;;;;-11.06;71.25;100290.44;1742591;81;25687;-42
2021/01/17 02:11:56;;;;;;;21.55;8.30;;;;;;;-11.10;71.13;100292.06;1742505;81;26155;-46
2021/01/17 02:14:50;;;;;;;20.50;9.10;;;;;;;-11.12;71.13;100296.62;1742330;82;25630;-54
2021/01/17 02:17:20;;;;;;;26.87;9.50;;;;;;;-11.09;71.32;100296.79;1742545;81;25685;-56
2021/01/17 02:20:17;;;;;;;25.10;9.55;;;;;;;-11.15;70.99;100306.59;1742519;81;25720;-49
2021/01/17 02:23:05;;;;;;;26.62;8.95;;;;;;;-11.20;70.86;100306.27;1742614;81;25641;-40
2021/01/17 02:25:40;;;;;;;20.55;8.63;;;;;;;-11.30;70.91;100308.59;1742745;82;26846;-48
2021/01/17 02:28:17;;;;;;;24.90;9.03;;;;;;;-11.32;71.17;100304.49;1742366;82;25618;-43
2021/01/17 02:30:53;;;;;;;24.35;9.53;;;;;;;-11.35;71.16;100308.27;1742530;81;25618;-41
2021/01/17 02:33:28;;;;;;;21.35;9.00;;;;;;;-11.42;70.95;100309.08;1742458;82;25641;-40
2021/01/17 02:36:18;;;;;;;24.40;10.05;;;;;;;-11.46;71.17;100316.42;1752651;81;25234;-45
2021/01/17 02:39:12;;;;;;;27.13;9.78;;;;;;;-11.49;71.29;100318.05;1759634;80;27122;-41
2021/01/17 02:41:56;;;;;;;23.02;9.53;;;;;;;-11.52;71.36;100314.00;1759499;81;25682;-41
2021/01/17 02:44:26;;;;;;;25.85;10.50;;;;;;;-11.56;71.53;100308.79;1759538;81;25634;-54
2021/01/17 02:46:53;;;;;;;22.85;9.88;;;;;;;-11.53;71.71;100312.85;1759537;80;25940;-41
2021/01/17 02:49:21;;;;;;;23.15;9.43;;;;;;;-11.53;71.69;100318.07;1759577;81;26270;-55
2021/01/17 02:51:49;;;;;;;23.05;9.45;;;;;;;-11.46;71.57;100330.32;1759592;81;26653;-41
2021/01/17 02:54:33;;;;;;;24.98;9.75;;;;;;;-11.49;71.67;100328.50;1759463;81;25620;-53
2021/01/17 02:57:06;;;;;;;29.95;10.08;;;;;;;-11.47;71.78;100332.59;1759573;81;25650;-41
2021/01/17 02:59:54;;;;;;;23.75;9.50;;;;;;;-11.51;71.57;100331.30;1759513;80;25652;-41
2021/01/17 03:02:35;;;;;;;30.48;10.03;;;;;;;-11.50;71.70;100336.02;1759554;81;25552;-40
2021/01/17 03:05:10;;;;;;;21.00;8.48;;;;;;;-11.46;71.75;100333.40;1758629;80;27078;-56
2021/01/17 03:07:37;;;;;;;26.15;10.43;;;;;;;-11.43;71.88;100337.49;1744354;81;25585;-47
2021/01/17 03:10:09;;;;;;;22.98;9.10;;;;;;;-11.42;71.78;100332.58;1759556;81;25625;-42
2021/01/17 03:12:36;;;;;;;28.00;10.63;;;;;;;-11.38;71.86;100333.40;1759546;80;25615;-41
2021/01/17 03:15:07;;;;;;;21.42;8.90;;;;;;;-11.41;71.57;100334.22;1759560;81;25584;-48
2021/01/17 03:17:33;;;;;;;25.50;9.30;;;;;;;-11.42;71.63;100324.75;1759466;81;25916;-40
2021/01/17 03:20:00;;;;;;;32.45;10.55;;;;;;;-11.40;71.63;100334.06;1759475;80;25805;-41
2021/01/17 03:22:27;;;;;;;25.32;9.85;;;;;;;-11.38;71.56;100338.63;1759633;81;25699;-40
2021/01/17 03:24:54;;;;;;;22.10;8.33;;;;;;;-11.38;71.48;100340.42;1759539;80;25564;-42
2021/01/17 03:27:20;;;;;;;24.87;10.38;;;;;;;-11.36;71.54;100348.91;1759764;80;25644;-53
2021/01/17 03:29:47;;;;;;;25.32;9.78;;;;;;;-11.35;71.41;100350.55;1759620;81;26159;-49
2021/01/17 03:32:14;;;;;;;21.20;9.10;;;;;;;-11.42;71.17;100346.47;1759615;80;25613;-40
2021/01/17 03:34:47;;;;;;;24.70;10.15;;;;;;;-11.41;71.30;100348.08;1759559;81;25604;-40
2021/01/17 03:37:10;;;;;;;24.67;10.20;;;;;;;-11.40;71.25;100352.84;1759117;79;32527;-43
2021/01/17 03:39:37;;;;;;;26.60;9.98;;;;;;;-11.43;71.02;100349.23;1759606;80;25669;-41
2021/01/17 03:42:05;;;;;;;20.70;8.93;;;;;;;-11.47;71.15;100341.73;1759690;81;27081;-43
2021/01/17 03:44:31;;;;;;;26.93;10.05;;;;;;;-11.49;71.14;100342.39;1759669;80;25668;-45
2021/01/17 03:46:58;;;;;;;26.48;8.98;;;;;;;-11.49;70.72;100345.47;1759544;80;25827;-52
2021/01/17 03:49:25;;;;;;;26.20;9.35;;;;;;;-11.62;70.75;100343.86;1759634;81;25626;-40
2021/01/17 03:51:52;;;;;;;20.70;9.25;;;;;;;-11.67;70.90;100343.03;1759516;80;25943;-45
2021/01/17 03:54:19;;;;;;;23.62;9.38;;;;;;;-11.71;70.87;100349.08;1759547;81;26153;-44
2021/01/17 03:56:46;;;;;;;26.00;8.85;;;;;;;-11.77;70.85;100352.81;1759574;81;25564;-43
2021/01/17 03:59:17;;;;;;;22.07;8.95;;;;;;;-11.80;70.80;100359.16;1759616;81;25671;-42
2021/01/17 04:01:44;;;;;;;29.30;9.55;;;;;;;-11.89;70.53;100362.25;1759577;80;25630;-42
2021/01/17 04:04:11;;;;;;;22.93;9.25;;;;;;;-11.93;70.69;100364.09;1759723;81;25662;-55
2021/01/17 04:06:39;;;;;;;22.60;9.13;;;;;;;-11.96;70.88;100361.30;1759643;81;26141;-41
2021/01/17 04:09:07;;;;;;;23.57;10.05;;;;;;;-11.97;71.03;100360.15;1759557;81;25695;-40
2021/01/17 04:11:34;;;;;;;22.87;8.95;;;;;;;-11.99;70.98;100364.22;1759617;80;25584;-41
2021/01/17 04:14:00;;;;;;;23.98;9.43;;;;;;;-12.00;71.10;100367.82;1759478;80;25563;-53
2021/01/17 04:16:27;;;;;;;22.73;9.35;;;;;;;-12.01;71.05;100362.27;1759392;80;25647;-56
2021/01/17 04:18:54;;;;;;;24.15;8.55;;;;;;;-11.98;71.13;100370.24;1759594;81;26166;-39
2021/01/17 04:21:21;;;;;;;29.12;9.03;;;;;;;-11.97;71.11;100371.89;1759540;81;25623;-42
2021/01/17 04:23:48;;;;;;;20.30;8.40;;;;;;;-12.00;70.99;100376.95;1759535;81;25687;-52
2021/01/17 04:26:18;;;;;;;23.90;9.30;;;;;;;-11.96;71.27;100382.66;1759553;81;25578;-56
2021/01/17 04:28:46;;;;;;;27.70;9.40;;;;;;;-11.93;71.31;100392.28;1759757;81;25575;-54
2021/01/17 04:31:12;;;;;;;27.05;9.78;;;;;;;-11.90;71.29;100393.25;1759610;81;27202;-45
2021/01/17 04:33:39;;;;;;;32.55;9.78;;;;;;;-11.93;71.10;100394.09;1759537;80;25644;-51
2021/01/17 04:36:08;;;;;;;28.07;9.75;;;;;;;-11.96;71.13;100397.81;1753185;81;26250;-54
2021/01/17 04:38:35;;;;;;;21.13;7.83;;;;;;;-11.96;71.16;100403.03;1742638;81;25684;-45
2021/01/17 04:41:04;;;;;;;20.95;9.08;;;;;;;-11.98;71.04;100403.69;1742552;81;25637;-42
2021/01/17 04:43:39;;;;;;;20.97;8.58;;;;;;;-12.01;71.01;100408.41;1742590;81;26892;-43
2021/01/17 04:46:16;;;;;;;22.93;9.57;;;;;;;-11.97;70.96;100407.11;1847790;76;25505;-46
2021/01/17 04:48:45;;;;;;;28.42;10.00;;;;;;;-12.03;71.05;100404.16;1817717;78;25661;-53
2021/01/17 04:51:13;;;;;;;21.97;9.98;;;;;;;-11.98;71.25;100410.20;1818150;78;26258;-50
2021/01/17 04:53:42;;;;;;;24.05;9.18;;;;;;;-11.95;71.11;100405.14;1817868;78;25654;-48
2021/01/17 04:56:28;;;;;;;29.13;10.13;;;;;;;-11.92;71.14;100403.03;1818213;78;25627;-55
2021/01/17 04:59:11;;;;;;;25.35;9.93;;;;;;;-11.92;71.05;100404.84;1817843;78;25739;-49
2021/01/17 05:01:55;;;;;;;29.57;12.15;;;;;;;-11.93;71.11;100405.33;1815043;78;25628;-56
2021/01/17 05:04:46;;;;;;;30.02;10.03;;;;;;;-11.90;71.27;100406.76;1817494;78;25695;-49
2021/01/17 05:07:19;;;;;;;26.95;9.18;;;;;;;-11.86;71.29;100410.20;1818057;78;25729;-55
2021/01/17 05:10:11;;;;;;;29.87;10.68;;;;;;;-11.82;71.24;100416.41;1817651;78;25536;-45
2021/01/17 05:12:51;;;;;;;27.35;9.63;;;;;;;-11.83;71.11;100419.52;1817789;78;25655;-40
2021/01/17 05:15:23;;;;;;;31.05;9.85;;;;;;;-11.86;70.94;100413.31;1806697;78;25662;-52
2021/01/17 05:17:53;;;;;;;26.62;9.40;;;;;;;-11.87;70.94;100412.97;1817989;78;25678;-55
2021/01/17 05:20:21;;;;;;;26.12;10.13;;;;;;;-11.91;70.82;100412.50;1817412;78;25617;-54
2021/01/17 05:22:50;;;;;;;20.82;8.60;;;;;;;-11.90;70.87;100420.64;1818004;78;25638;-51
2021/01/17 05:25:18;;;;;;;26.73;9.88;;;;;;;-11.90;70.95;100417.20;1818051;78;25610;-44
2021/01/17 05:27:49;;;;;;;27.70;10.00;;;;;;;-11.89;70.99;100419.65;1786356;78;25566;-52
2021/01/17 05:30:17;;;;;;;32.58;11.10;;;;;;;-11.90;71.10;100419.80;1818010;78;25737;-54
2021/01/17 05:32:50;;;;;;;23.83;9.78;;;;;;;-11.83;71.25;100427.34;1817878;78;25677;-55
2021/01/17 05:35:23;;;;;;;27.42;10.45;;;;;;;-11.80;71.27;100426.20;1817093;78;25662;-44
2021/01/17 05:37:54;;;;;;;24.63;10.32;;;;;;;-11.76;71.33;100427.50;1817876;78;25648;-42
2021/01/17 05:40:23;;;;;;;26.27;9.70;;;;;;;-11.77;71.03;100423.27;1818011;78;25673;-53
2021/01/17 05:42:50;;;;;;;38.17;11.10;;;;;;;-11.81;70.86;100425.86;1818244;78;25754;-43
2021/01/17 05:45:24;;;;;;;32.13;10.13;;;;;;;-11.86;70.82;100434.98;1822078;78;25662;-53
2021/01/17 05:48:03;;;;;;;24.12;10.00;;;;;;;-11.85;70.80;100443.63;1827324;78;25700;-43
2021/01/17 05:50:33;;;;;;;25.88;10.08;;;;;;;-11.82;70.99;100447.72;1827104;78;25619;-42
2021/01/17 05:53:03;;;;;;;26.60;10.32;;;;;;;-11.82;70.82;100450.33;1827255;78;25632;-42
2021/01/17 05:55:42;;;;;;;36.48;11.57;;;;;;;-11.82;70.95;100445.11;1827133;78;25684;-54
2021/01/17 05:58:30;;;;;;;28.32;10.78;;;;;;;-11.80;70.89;100453.59;1826608;78;35135;-56
2021/01/17 06:01:06;;;;;;;31.45;9.20;;;;;;;-11.80;70.81;100458.31;1826714;78;25561;-43
2021/01/17 06:03:34;;;;;;;27.40;10.63;;;;;;;-11.83;70.73;100459.96;1826534;78;25602;-54
2021/01/17 06:06:05;;;;;;;29.32;10.23;;;;;;;-11.85;70.85;100465.80;1799332;78;25618;-56
2021/01/17 06:08:34;;;;;;;33.90;11.08;;;;;;;-11.88;70.62;100465.65;1826565;78;25891;-41
2021/01/17 06:11:10;;;;;;;19.07;8.35;;;;;;;-11.89;70.64;100471.83;1826660;78;25735;-55
2021/01/17 06:13:40;;;;;;;28.87;10.30;;;;;;;-11.92;70.79;100470.06;1826546;78;25953;-56
2021/01/17 06:16:39;;;;;;;25.95;10.75;;;;;;;-11.90;70.74;100481.12;1826291;78;25675;-44
2021/01/17 06:19:09;;;;;;;27.32;9.80;;;;;;;-11.91;70.73;100482.14;1826859;78;25618;-41
2021/01/17 06:21:38;;;;;;;24.20;8.60;;;;;;;-11.88;70.66;100485.71;1826578;78;25911;-54
2021/01/17 06:24:10;;;;;;;26.53;9.77;;;;;;;-11.90;70.47;100491.55;1826724;78;25681;-56
2021/01/17 06:26:39;;;;;;;30.68;9.95;;;;;;;-11.91;70.46;100489.97;1826616;78;25605;-55
2021/01/17 06:29:09;;;;;;;26.70;9.33;;;;;;;-11.91;70.57;100491.27;1826489;78;25591;-55
2021/01/17 06:31:37;;;;;;;27.82;10.32;;;;;;;-11.89;70.70;100498.41;1826651;78;25571;-50
2021/01/17 06:34:13;;;;;;;27.00;10.08;;;;;;;-11.91;70.59;100504.31;1826643;78;25691;-46
2021/01/17 06:36:43;;;;;;;28.17;8.83;;;;;;;-11.93;70.48;100504.97;1826316;78;25617;-45
2021/01/17 06:39:25;;;;;;;28.30;9.18;;;;;;;-11.93;70.51;100511.48;1826454;78;25651;-55
2021/01/17 06:41:57;;;;;;;30.70;8.98;;;;;;;-11.91;70.52;100516.86;1826539;78;25578;-46
2021/01/17 06:44:33;;;;;;;25.25;9.85;;;;;;;-11.87;70.59;100525.16;1826533;78;25586;-54
2021/01/17 06:47:01;;;;;;;27.35;10.23;;;;;;;-11.87;70.60;100519.45;1826530;78;25979;-54
2021/01/17 06:49:32;;;;;;;20.05;9.38;;;;;;;-11.84;70.58;100525.66;1826548;78;26266;-42
2021/01/17 06:52:04;;;;;;;27.95;10.63;;;;;;;-11.80;70.55;100529.27;1826382;78;25570;-48
2021/01/17 06:54:38;;;;;;;22.20;9.58;;;;;;;-11.79;70.54;100530.42;1826539;78;25188;-53
2021/01/17 06:57:06;;;;;;;24.02;9.50;;;;;;;-11.77;70.53;100532.37;1826665;78;25596;-40
2021/01/17 06:59:42;;;;;;;33.67;10.38;;;;;;;-11.75;70.49;100542.16;1826489;78;27968;-53
2021/01/17 07:02:27;;;;;;;25.95;9.35;;;;;;;-11.76;70.46;100546.23;1826526;78;25589;-52
2021/01/17 07:05:05;;;;;;;25.43;8.75;;;;;;;-11.71;70.54;100552.64;1826519;78;26328;-56
2021/01/17 07:08:16;;;;;;;24.87;9.28;;;;;;;-11.70;70.42;100551.65;1826492;78;25618;-41
2021/01/17 07:10:43;;;;;;;26.07;9.48;;;;;;;-11.71;70.43;100556.55;1806459;78;25587;-52
2021/01/17 07:13:16;;;;;;;26.05;9.50;;;;;;;-11.71;70.21;100557.02;1798765;78;26130;-55
2021/01/17 07:15:43;;;;;;;27.22;9.63;;;;;;;-11.70;70.45;100557.36;1826482;78;25647;-54
2021/01/17 07:18:15;;;;;;;27.20;10.72;;;;;;;-11.71;70.27;100563.55;1826510;78;25559;-47
2021/01/17 07:20:50;;;;;;;27.45;10.18;;;;;;;-11.71;70.05;100571.38;1826529;78;25612;-57
2021/01/17 07:23:18;;;;;;;25.30;10.15;;;;;;;-11.77;70.06;100574.62;1826597;78;25594;-53
2021/01/17 07:25:48;;;;;;;31.65;11.75;;;;;;;-11.77;70.19;100576.73;1805023;78;25728;-56
2021/01/17 07:28:19;;;;;;;;;;;;;;;-11.76;70.13;100583.61;1789103;80;25620;-56
2021/01/17 07:31:00;;;;;;;30.32;11.15;;;;;;;-11.79;70.05;100578.70;1780026;80;25673;-57
2021/01/17 07:33:36;;;;;;;29.80;10.88;;;;;;;-11.73;70.31;100583.77;1755862;81;25627;-55
2021/01/17 07:36:08;;;;;;;27.93;9.40;;;;;;;-11.71;70.26;100578.73;1760452;81;25604;-58
2021/01/17 07:38:38;;;;;;;27.77;10.82;;;;;;;-11.67;70.45;100581.35;1759259;81;25942;-51
2021/01/17 07:41:09;;;;;;;29.82;11.03;;;;;;;-11.62;70.28;100579.59;1760492;81;25742;-50
2021/01/17 07:43:43;;;;;;;29.15;12.07;;;;;;;-11.63;70.17;100575.33;1760513;81;25650;-58
2021/01/17 07:46:16;;;;;;;31.25;11.93;;;;;;;-11.61;70.02;100573.88;1762016;81;25642;-54
2021/01/17 07:48:47;;;;;;;26.85;10.93;;;;;;;-11.59;70.04;100583.66;1763479;81;25647;-56
2021/01/17 07:51:16;;;;;;;27.00;9.93;;;;;;;-11.56;69.97;100583.35;1763368;81;25680;-57
2021/01/17 07:54:00;;;;;;;28.38;11.55;;;;;;;-11.50;69.99;100587.46;1727244;82;25677;-57
2021/01/17 07:56:34;;;;;;;29.98;11.45;;;;;;;-11.48;70.05;100589.91;1674557;84;25669;-55
2021/01/17 07:59:07;;;;;;;29.35;11.57;;;;;;;-11.47;69.83;100584.54;1674245;84;25703;-57
2021/01/17 08:01:40;;;;;;;33.80;11.43;;;;;;;-11.40;69.93;100581.31;1700658;83;25704;-58
2021/01/17 08:04:16;;;;;;;36.55;12.05;;;;;;;-11.37;69.99;100587.03;1712688;83;25912;-57
2021/01/17 08:06:47;;;;;;;29.42;11.10;;;;;;;-11.31;70.06;100586.88;1742356;81;25680;-55
2021/01/17 08:09:19;;;;;;;26.20;11.10;;;;;;;-11.27;69.68;100584.27;1712960;83;25613;-57
2021/01/17 08:11:56;;;;;;;37.28;11.43;;;;;;;-11.24;69.74;100589.17;1708203;81;25649;-54
2021/01/17 08:14:29;;;;;;;31.02;11.97;;;;;;;-11.18;69.89;100588.55;1721386;82;25631;-57
2021/01/17 08:17:15;;;;;;;28.00;11.00;;;;;;;-11.11;69.82;100588.23;1727074;82;25917;-57
2021/01/17 08:19:55;;;;;;;32.48;10.85;;;;;;;-10.97;69.74;100604.27;1727342;82;25575;-57
2021/01/17 08:22:28;;;;;;;30.17;10.45;;;;;;;-10.95;69.77;100588.74;1727399;81;25755;-57
2021/01/17 08:25:06;;;;;;;28.75;10.98;;;;;;;-10.91;69.51;100594.49;1724678;83;25649;-53
2021/01/17 08:27:43;;;;;;;35.98;12.40;;;;;;;-10.91;69.18;100592.69;1727428;82;25622;-58
2021/01/17 08:30:21;;;;;;;26.93;10.75;;;;;;;-10.82;69.56;100592.20;1727306;83;27139;-53
2021/01/17 08:32:55;;;;;;;27.98;11.63;;;;;;;-10.72;69.47;100593.37;1727155;83;25660;-57
2021/01/17 08:35:28;;;;;;;25.65;10.55;;;;;;;-10.66;69.22;100598.42;1727230;82;25726;-57
2021/01/17 08:38:13;;;;;;;24.95;10.18;;;;;;;-10.62;68.91;100602.34;1727179;82;25621;-56
2021/01/17 08:40:44;;;;;;;29.67;12.70;;;;;;;-10.66;68.97;100609.69;1726797;82;25689;-57
2021/01/17 08:43:17;;;;;;;33.48;11.83;;;;;;;-10.60;69.12;100611.67;1727264;83;25777;-57
2021/01/17 08:45:47;;;;;;;31.77;11.40;;;;;;;-10.55;68.85;100618.53;1722419;83;25660;-53
2021/01/17 08:48:20;;;;;;;;;;;;;;;-10.52;68.90;100618.22;1726005;83;25644;-54
2021/01/17 08:50:51;;;;;;;29.40;10.90;;;;;;;-10.45;68.70;100631.92;1692875;84;25596;-56
2021/01/17 08:53:31;;;;;;;29.92;12.03;;;;;;;-10.43;68.59;100634.72;1703308;84;25675;-54
2021/01/17 08:56:14;;;;;;;26.57;11.43;;;;;;;-10.40;68.48;100629.64;1702573;84;25783;-57
2021/01/17 08:58:44;;;;;;;30.37;12.95;;;;;;;-10.39;68.16;100633.41;1699325;84;25665;-58
2021/01/17 09:01:13;;;;;;;27.62;11.73;;;;;;;-10.42;67.95;100639.45;1703503;84;25613;-57
2021/01/17 09:03:49;;;;;;;38.88;14.38;;;;;;;-10.38;68.09;100649.94;1703227;84;25629;-57
2021/01/17 09:06:26;;;;;;;41.58;16.05;;;;;;;-10.36;67.86;100655.81;1703386;84;25796;-57
2021/01/17 09:08:59;;;;;;;39.92;14.95;;;;;;;-10.35;67.69;100669.20;1703405;84;25701;-57
2021/01/17 09:14:14;;;;;;;48.47;18.10;;;;;;;-10.29;67.32;100676.38;1887157;76;25641;-47
2021/01/17 09:17:00;;;;;;;61.48;19.92;;;;;;;-10.42;67.04;100682.61;1858343;77;25921;-55
2021/01/17 09:19:34;;;;;;;53.75;19.92;;;;;;;-10.47;66.94;100684.89;1856877;77;26409;-56
2021/01/17 09:22:08;;;;;;;51.90;19.27;;;;;;;-10.55;66.82;100690.94;1844562;77;25669;-55
2021/01/17 09:24:40;;;;;;;52.15;19.67;;;;;;;-10.58;66.90;100692.56;1824554;78;25589;-51
2021/01/17 09:27:10;;;;;;;54.18;19.35;;;;;;;-10.58;67.13;100703.02;1766377;78;25698;-58
2021/01/17 09:29:41;;;;;;;48.55;19.45;;;;;;;-10.58;67.00;100701.22;1757477;81;25615;-57
2021/01/17 09:32:16;;;;;;;43.10;17.90;;;;;;;-10.60;66.74;100697.14;1757492;81;25764;-51
2021/01/17 09:34:47;;;;;;;45.58;17.12;;;;;;;-10.64;66.81;100697.12;1756940;81;25683;-57
2021/01/17 09:37:18;;;;;;;43.63;16.40;;;;;;;-10.61;66.82;100699.41;1756979;81;25617;-56
2021/01/17 09:39:52;;;;;;;57.23;21.60;;;;;;;-10.61;66.74;100703.34;1757389;81;26002;-55
2021/01/17 09:42:23;;;;;;;38.15;16.77;;;;;;;-10.64;66.65;100706.27;1772286;78;25628;-57
2021/01/17 09:44:59;;;;;;;46.15;17.87;;;;;;;-10.67;66.11;100710.50;1791198;79;25753;-57
2021/01/17 09:47:28;;;;;;;41.05;17.42;;;;;;;-10.73;66.04;100711.97;1791052;80;25641;-56
2021/01/17 09:50:07;;;;;;;43.78;17.52;;;;;;;-10.77;66.17;100727.16;1791049;80;25658;-53
2021/01/17 09:52:40;;;;;;;50.20;18.27;;;;;;;-10.77;66.05;100731.08;1790984;80;25610;-57
2021/01/17 09:55:10;;;;;;;40.92;16.12;;;;;;;-10.83;66.15;100725.16;1790366;79;25627;-53
2021/01/17 09:57:40;;;;;;;34.83;14.80;;;;;;;-10.81;66.12;100727.63;1789930;79;25768;-55
2021/01/17 10:00:11;;;;;;;40.78;14.68;;;;;;;-10.86;65.63;100722.05;1790193;80;33108;-45
2021/01/17 10:02:38;;;;;;;43.42;15.98;;;;;;;-10.93;65.54;100723.16;1789750;80;25720;-56
2021/01/17 10:05:06;;;;;;;36.15;15.28;;;;;;;-10.96;65.57;100724.31;1787169;77;28419;-57
2021/01/17 10:07:33;;;;;;;35.80;14.38;;;;;;;-10.97;65.49;100723.16;1819542;78;25761;-57
2021/01/17 10:10:10;;;;;;;43.17;17.05;;;;;;;-10.96;65.73;100729.55;1825753;78;27264;-56
2021/01/17 10:12:37;;;;;;;42.80;16.90;;;;;;;-10.94;66.01;100729.39;1825645;78;25684;-54
2021/01/17 10:15:12;;;;;;;43.75;15.65;;;;;;;-10.96;65.77;100733.95;1824016;78;25598;-54
2021/01/17 10:17:48;;;;;;;40.43;14.63;;;;;;;-10.92;66.00;100738.69;1824282;78;26074;-55
2021/01/17 10:20:26;;;;;;;45.23;16.90;;;;;;;-10.90;65.80;100737.23;1823866;78;25623;-56
2021/01/17 10:23:08;;;;;;;64.30;28.87;;;;;;;-10.81;65.80;100743.30;1830885;76;27703;-52
2021/01/17 10:25:36;;;;;;;56.88;22.50;;;;;;;-10.83;66.03;100741.34;1816802;78;25610;-55
2021/01/17 10:28:07;;;;;;;58.98;21.77;;;;;;;-10.73;65.79;100744.14;1816835;78;25694;-49
2021/01/17 10:30:37;;;;;;;51.33;19.90;;;;;;;-10.74;65.64;100743.02;1825306;77;25647;-53
2021/01/17 10:33:08;;;;;;;53.13;20.05;;;;;;;-10.71;65.74;100745.30;1815003;79;25656;-48
2021/01/17 10:35:45;;;;;;;46.58;17.57;;;;;;;-10.69;65.84;100747.76;1814973;78;25728;-51
2021/01/17 10:38:14;;;;;;;42.38;17.55;;;;;;;-10.63;65.69;100749.25;1815126;78;25736;-56
2021/01/17 10:40:43;;;;;;;41.37;17.95;;;;;;;-10.61;65.46;100744.67;1815234;78;27194;-55
2021/01/17 10:43:32;;;;;;;42.50;17.50;;;;;;;-10.60;65.69;100739.78;1815081;78;26010;-52
2021/01/17 10:46:13;;;;;;;43.68;17.17;;;;;;;-10.60;65.48;100745.52;1779334;80;25674;-52
2021/01/17 10:49:10;;;;;;;42.90;17.57;;;;;;;-10.58;65.66;100748.28;1748316;81;25611;-54
2021/01/17 10:51:45;;;;;;;38.80;16.57;;;;;;;-10.47;65.84;100744.58;1748147;81;25830;-57
2021/01/17 10:54:22;;;;;;;39.40;13.75;;;;;;;-10.37;65.95;100745.72;1748037;82;25914;-56
2021/01/17 10:56:52;;;;;;;40.65;14.95;;;;;;;-10.35;65.45;100751.12;1748353;81;25693;-57
2021/01/17 10:59:23;;;;;;;47.73;18.48;;;;;;;-10.33;65.29;100750.97;1745253;81;25730;-57
2021/01/17 11:01:50;;;;;;;38.63;15.98;;;;;;;-10.31;65.61;100748.98;1746661;80;25701;-57
2021/01/17 11:04:17;;;;;;;40.70;16.23;;;;;;;-10.24;65.87;100744.73;1732468;81;25667;-54
2021/01/17 11:06:45;;;;;;;40.80;16.07;;;;;;;-10.16;65.68;100751.28;1746479;80;25743;-54
2021/01/17 11:09:16;;;;;;;48.15;17.05;;;;;;;-10.11;65.62;100751.28;1776016;80;25737;-56
2021/01/17 11:11:47;;;;;;;46.95;18.30;;;;;;;-10.05;65.49;100761.11;1776215;80;25649;-54
2021/01/17 11:14:14;;;;;;;34.27;16.55;;;;;;;-10.07;65.02;100765.69;1776075;80;25817;-55
2021/01/17 11:16:51;;;;;;;43.23;17.80;;;;;;;-10.09;65.30;100763.23;1776179;80;25659;-52
2021/01/17 11:19:21;;;;;;;43.40;16.52;;;;;;;-10.04;65.31;100753.09;1776176;80;25769;-55
2021/01/17 11:21:53;;;;;;;45.43;16.45;;;;;;;-10.01;65.26;100758.48;1775123;80;25845;-55
2021/01/17 11:24:34;;;;;;;48.70;19.07;;;;;;;-9.95;65.46;100757.84;1748263;82;25651;-57
2021/01/17 11:27:16;;;;;;;45.75;18.15;;;;;;;-9.88;65.52;100761.44;1748351;82;26333;-46
2021/01/17 11:29:44;;;;;;;45.38;18.70;;;;;;;-9.87;64.86;100761.77;1748225;82;25684;-56
2021/01/17 11:32:11;;;;;;;48.68;18.90;;;;;;;-9.90;64.92;100755.55;1747845;82;25920;-56